createdAt,value
2018-06-05T00:00:41.124Z,99117.75
2018-06-05T00:03:10.128Z,99115.53
2018-06-05T00:05:39.181Z,99117.70
2018-06-05T00:08:08.191Z,99121.23
2018-06-05T00:10:37.196Z,99121.17
2018-06-05T00:13:06.323Z,99117.55
2018-06-05T00:15:35.258Z,99114.70
2018-06-05T00:18:04.310Z,99120.93
2018-06-05T00:20:33.308Z,99118.09
2018-06-05T00:23:02.288Z,99115.84
2018-06-05T00:25:31.297Z,99111.93
2018-06-05T00:28:00.304Z,99117.86
2018-06-05T00:30:29.346Z,99115.59
2018-06-05T00:32:58.356Z,99114.40
2018-06-05T00:35:27.358Z,99110.52
2018-06-05T00:37:56.360Z,99113.20
2018-06-05T00:40:25.364Z,99114.20
2018-06-05T00:42:54.398Z,99109.49
2018-06-05T00:45:23.425Z,99112.97
2018-06-05T00:47:52.364Z,99113.21
2018-06-05T00:50:21.304Z,99104.66
2018-06-05T00:52:50.324Z,99107.83
2018-06-05T00:55:19.279Z,99104.73
2018-06-05T00:57:48.280Z,99107.66
2018-06-05T01:00:17.228Z,99107.02
2018-06-05T01:02:46.269Z,99104.20
2018-06-05T01:05:16.193Z,99112.33
2018-06-05T01:07:45.184Z,99108.44
2018-06-05T01:10:14.180Z,99109.75
2018-06-05T01:12:43.125Z,99110.77
2018-06-05T01:15:12.085Z,99105.22
2018-06-05T01:17:41.031Z,99110.84
2018-06-05T01:20:10.009Z,99114.30
2018-06-05T01:22:39.060Z,99106.91
2018-06-05T01:25:08.077Z,99105.77
2018-06-05T01:27:37.007Z,99109.53
2018-06-05T01:30:06.069Z,99105.64
2018-06-05T01:32:35.075Z,99107.25
2018-06-05T01:35:04.111Z,99103.68
2018-06-05T01:37:33.665Z,99101.39
2018-06-05T01:40:02.729Z,99102.17
2018-06-05T01:42:31.728Z,99103.27
2018-06-05T01:45:00.725Z,99096.42
2018-06-05T01:47:29.740Z,99097.44
2018-06-05T01:49:58.686Z,99100.70
2018-06-05T01:52:27.676Z,99099.31
2018-06-05T01:54:56.753Z,99096.00
2018-06-05T01:57:25.813Z,99093.48
2018-06-05T01:59:54.827Z,99102.16
2018-06-05T02:02:23.772Z,99102.93
2018-06-05T02:04:52.783Z,99097.67
2018-06-05T02:07:21.719Z,99108.27
2018-06-05T02:09:50.726Z,99109.92
2018-06-05T02:12:19.753Z,99115.60
2018-06-05T02:14:48.752Z,99116.94
2018-06-05T02:17:17.797Z,99116.36
2018-06-05T02:19:46.807Z,99121.69
2018-06-05T02:22:15.808Z,99126.47
2018-06-05T02:24:44.817Z,99129.11
2018-06-05T02:27:13.790Z,99131.48
2018-06-05T02:29:42.771Z,99127.34
2018-06-05T02:32:11.759Z,99129.47
2018-06-05T02:34:40.699Z,99129.98
2018-06-05T02:37:09.696Z,99127.44
2018-06-05T02:39:38.712Z,99136.64
2018-06-05T02:42:07.769Z,99137.17
2018-06-05T02:44:36.711Z,99131.97
2018-06-05T02:47:05.633Z,99136.36
2018-06-05T02:49:34.612Z,99138.61
2018-06-05T02:52:03.674Z,99135.42
2018-06-05T02:54:32.631Z,99141.45
2018-06-05T02:57:01.657Z,99142.89
2018-06-05T02:59:30.604Z,99144.30
2018-06-05T03:01:59.729Z,99143.27
2018-06-05T03:04:28.724Z,99139.06
2018-06-05T03:06:57.652Z,99138.90
2018-06-05T03:09:26.593Z,99140.97
2018-06-05T03:11:55.575Z,99141.69
2018-06-05T03:14:24.540Z,99138.66
2018-06-05T03:16:53.462Z,99138.83
2018-06-05T03:19:22.548Z,99147.17
2018-06-05T03:21:51.504Z,99153.30
2018-06-05T03:24:20.438Z,99148.61
2018-06-05T03:26:49.395Z,99151.78
2018-06-05T03:29:18.344Z,99152.24
2018-06-05T03:31:47.343Z,99153.05
2018-06-05T03:34:16.328Z,99147.80
2018-06-05T03:36:45.372Z,99141.97
2018-06-05T03:39:14.383Z,99156.31
2018-06-05T03:41:43.324Z,99156.52
2018-06-05T03:44:12.328Z,99158.33
2018-06-05T03:46:41.315Z,99156.17
2018-06-05T03:49:10.329Z,99156.98
2018-06-05T03:51:39.444Z,99157.66
2018-06-05T03:54:08.528Z,99157.91
2018-06-05T03:56:37.472Z,99154.42
2018-06-05T03:59:06.420Z,99156.06
2018-06-05T04:01:35.432Z,99161.77
2018-06-05T04:04:04.457Z,99152.53
2018-06-05T04:06:33.697Z,99151.79
2018-06-05T04:09:02.712Z,99155.31
2018-06-05T04:11:31.716Z,99153.48
2018-06-05T04:14:00.738Z,99159.93
2018-06-05T04:16:29.824Z,99156.84
2018-06-05T04:18:58.776Z,99154.77
2018-06-05T04:21:27.787Z,99166.59
2018-06-05T04:23:56.763Z,99156.28
2018-06-05T04:26:25.744Z,99152.68
2018-06-05T04:28:54.751Z,99155.84
2018-06-05T04:31:23.683Z,99162.06
2018-06-05T04:33:52.721Z,99158.75
2018-06-05T04:36:21.724Z,99156.23
2018-06-05T04:38:50.770Z,99157.30
2018-06-05T04:41:19.720Z,99154.47
2018-06-05T04:43:48.789Z,99161.02
2018-06-05T04:46:17.807Z,99164.20
2018-06-05T04:48:46.819Z,99171.32
2018-06-05T04:51:15.894Z,99167.00
2018-06-05T04:53:45.062Z,99162.28
2018-06-05T04:56:14.027Z,99168.93
2018-06-05T04:58:43.104Z,99162.08
2018-06-05T05:01:12.158Z,99170.69
2018-06-05T05:03:41.182Z,99169.48
2018-06-05T05:06:10.181Z,99171.66
2018-06-05T05:08:39.257Z,99171.33
2018-06-05T05:11:08.332Z,99168.20
2018-06-05T05:13:37.284Z,99181.84
2018-06-05T05:16:06.267Z,99178.69
2018-06-05T05:18:35.214Z,99178.67
2018-06-05T05:21:04.270Z,99174.27
2018-06-05T05:23:33.204Z,99187.06
2018-06-05T05:26:02.148Z,99188.28
2018-06-05T05:28:31.157Z,99187.48
2018-06-05T05:31:00.230Z,99190.02
2018-06-05T05:33:29.199Z,99182.44
2018-06-05T05:35:58.244Z,99183.64
2018-06-05T05:38:27.264Z,99180.95
2018-06-05T05:40:56.341Z,99188.04
2018-06-05T05:43:25.343Z,99191.59
2018-06-05T05:45:54.327Z,99196.95
2018-06-05T05:48:23.342Z,99194.88
2018-06-05T05:50:52.409Z,99200.97
2018-06-05T05:53:21.363Z,99196.64
2018-06-05T05:55:50.453Z,99196.05
2018-06-05T05:58:19.405Z,99202.13
2018-06-05T06:00:48.384Z,99193.34
2018-06-05T06:03:17.347Z,99194.86
2018-06-05T06:05:46.305Z,99189.06
2018-06-05T06:08:15.264Z,99191.98
2018-06-05T06:10:44.215Z,99188.70
2018-06-05T06:13:13.265Z,99195.16
2018-06-05T06:15:42.286Z,99196.52
2018-06-05T06:18:11.236Z,99196.55
2018-06-05T06:20:40.188Z,99194.23
2018-06-05T06:23:09.169Z,99192.37
2018-06-05T06:25:38.191Z,99194.30
2018-06-05T06:28:07.208Z,99194.48
2018-06-05T06:30:36.249Z,99194.98
2018-06-05T06:33:05.245Z,99190.22
2018-06-05T06:35:34.216Z,99192.44
2018-06-05T06:38:03.262Z,99193.70
2018-06-05T06:40:32.273Z,99193.86
2018-06-05T06:43:01.357Z,99191.48
2018-06-05T06:45:30.316Z,99189.52
2018-06-05T06:47:59.381Z,99189.50
2018-06-05T06:50:28.331Z,99189.58
2018-06-05T06:52:57.376Z,99186.07
2018-06-05T06:55:26.391Z,99191.01
2018-06-05T06:57:55.404Z,99189.30
2018-06-05T07:00:24.420Z,99188.84
2018-06-05T07:02:53.425Z,99182.11
2018-06-05T07:05:22.501Z,99180.27
2018-06-05T07:07:51.440Z,99180.05
2018-06-05T07:10:20.467Z,99178.63
2018-06-05T07:12:49.472Z,99172.23
2018-06-05T07:15:18.472Z,99178.07
2018-06-05T07:17:47.469Z,99168.37
2018-06-05T07:20:16.463Z,99173.64
2018-06-05T07:22:45.468Z,99172.92
2018-06-05T07:25:14.412Z,99167.13
2018-06-05T07:27:43.344Z,99171.25
2018-06-05T07:30:12.386Z,99167.10
2018-06-05T07:32:41.462Z,99173.16
2018-06-05T07:35:10.408Z,99172.75
2018-06-05T07:37:39.360Z,99169.31
2018-06-05T07:40:08.453Z,99175.28
2018-06-05T07:42:37.460Z,99175.48
2018-06-05T07:45:06.499Z,99172.77
2018-06-05T07:47:35.513Z,99175.20
2018-06-05T07:50:04.530Z,99170.66
2018-06-05T07:52:33.487Z,99169.77
2018-06-05T07:55:02.538Z,99167.63
2018-06-05T07:57:31.541Z,99167.63
2018-06-05T08:00:00.536Z,99158.25
2018-06-05T08:02:29.476Z,99165.73
2018-06-05T08:04:58.469Z,99163.59
2018-06-05T08:07:27.420Z,99169.97
2018-06-05T08:09:56.470Z,99164.41
2018-06-05T08:12:25.521Z,99165.87
2018-06-05T08:14:54.520Z,99163.37
2018-06-05T08:17:23.467Z,99158.72
2018-06-05T08:19:52.407Z,99166.59
2018-06-05T08:22:21.356Z,99157.80
2018-06-05T08:24:50.334Z,99159.34
2018-06-05T08:27:19.301Z,99162.67
2018-06-05T08:29:48.259Z,99161.39
2018-06-05T08:32:18.273Z,99165.21
2018-06-05T08:34:47.348Z,99161.41
2018-06-05T08:37:16.340Z,99160.09
2018-06-05T08:39:45.275Z,99158.02
2018-06-05T08:42:14.284Z,99151.84
2018-06-05T08:44:43.235Z,99156.94
2018-06-05T08:47:12.169Z,99156.88
2018-06-05T08:49:41.220Z,99151.21
2018-06-05T08:52:10.316Z,99152.17
2018-06-05T08:54:39.376Z,99151.84
2018-06-05T08:57:08.425Z,99141.83
2018-06-05T08:59:37.376Z,99138.88
2018-06-05T09:02:06.327Z,99145.97
2018-06-05T09:04:35.264Z,99138.11
2018-06-05T09:07:04.316Z,99136.70
2018-06-05T09:09:33.251Z,99130.82
2018-06-05T09:12:02.195Z,99127.52
2018-06-05T09:14:31.138Z,99128.38
2018-06-05T09:17:00.185Z,99133.80
2018-06-05T09:19:29.185Z,99137.34
2018-06-05T09:21:58.181Z,99135.08
2018-06-05T09:24:27.184Z,99127.83
2018-06-05T09:26:56.177Z,99123.91
2018-06-05T09:29:25.265Z,99125.17
2018-06-05T09:31:54.220Z,99130.77
2018-06-05T09:34:23.207Z,99131.10
2018-06-05T09:36:52.240Z,99123.63
2018-06-05T09:39:21.187Z,99123.66
2018-06-05T09:41:50.123Z,99126.30
2018-06-05T09:44:19.056Z,99128.20
2018-06-05T09:46:48.157Z,99125.11
2018-06-05T09:49:17.115Z,99121.95
2018-06-05T09:51:46.106Z,99127.36
2018-06-05T09:54:15.122Z,99121.12
2018-06-05T09:56:44.065Z,99116.30
2018-06-05T09:59:13.119Z,99113.63
2018-06-05T10:01:42.068Z,99106.76
2018-06-05T10:04:11.118Z,99115.01
2018-06-05T10:06:40.120Z,99121.94
2018-06-05T10:09:09.195Z,99118.65
2018-06-05T10:11:38.252Z,99114.41
2018-06-05T10:14:07.278Z,99110.07
2018-06-05T10:16:36.223Z,99113.22
2018-06-05T10:19:05.200Z,99107.64
2018-06-05T10:21:34.329Z,99104.23
2018-06-05T10:24:03.369Z,99105.08
2018-06-05T10:26:32.348Z,99098.01
2018-06-05T10:29:01.397Z,99100.42
2018-06-05T10:31:30.429Z,99094.59
2018-06-05T10:33:59.421Z,99091.20
2018-06-05T10:36:28.376Z,99092.14
2018-06-05T10:38:57.418Z,99079.31
2018-06-05T10:41:26.386Z,99080.52
2018-06-05T10:43:55.521Z,99073.53
2018-06-05T10:46:24.455Z,99072.52
2018-06-05T10:48:53.377Z,99070.97
2018-06-05T10:51:22.399Z,99071.30
2018-06-05T10:53:51.320Z,99066.88
2018-06-05T10:56:20.301Z,99067.98
2018-06-05T10:58:49.280Z,99062.84
2018-06-05T11:01:18.199Z,99068.84
2018-06-05T11:03:47.181Z,99057.86
2018-06-05T11:06:16.100Z,99049.63
2018-06-05T11:08:45.148Z,99053.56
2018-06-05T11:11:14.068Z,99046.92
2018-06-05T11:13:42.979Z,99056.70
2018-06-05T11:16:11.956Z,99060.54
2018-06-05T11:18:40.957Z,99052.45
2018-06-05T11:21:09.924Z,99051.27
2018-06-05T11:23:38.858Z,99048.93
2018-06-05T11:26:07.857Z,99050.89
2018-06-05T11:28:36.811Z,99045.55
2018-06-05T11:31:05.812Z,99037.27
2018-06-05T11:33:34.803Z,99038.67
2018-06-05T11:36:03.759Z,99028.13
2018-06-05T11:38:32.715Z,99027.84
2018-06-05T11:41:01.732Z,99026.59
2018-06-05T11:43:30.740Z,99024.93
2018-06-05T11:45:59.740Z,99023.11
2018-06-05T11:48:28.806Z,99026.39
2018-06-05T11:50:57.824Z,99021.52
2018-06-05T11:53:26.781Z,99026.62
2018-06-05T11:55:55.869Z,99028.05
2018-06-05T11:58:24.889Z,99023.98
2018-06-05T12:00:53.978Z,99018.82
2018-06-05T12:03:22.890Z,99015.91
2018-06-05T12:05:51.949Z,99013.91
2018-06-05T12:08:21.024Z,99016.53
2018-06-05T12:10:50.105Z,99017.00
2018-06-05T12:13:19.128Z,99013.64
2018-06-05T12:15:48.153Z,99012.16
2018-06-05T12:18:17.092Z,99009.31
2018-06-05T12:20:46.128Z,99011.92
2018-06-05T12:23:15.131Z,99007.88
2018-06-05T12:25:44.184Z,98998.62
2018-06-05T12:28:13.134Z,98999.07
2018-06-05T12:30:42.144Z,98999.91
2018-06-05T12:33:11.279Z,98997.89
2018-06-05T12:35:40.281Z,98997.86
2018-06-05T12:38:09.256Z,99001.73
2018-06-05T12:40:38.200Z,99000.20
2018-06-05T12:43:07.212Z,98996.17
2018-06-05T12:45:36.168Z,98997.69
2018-06-05T12:48:05.298Z,99000.91
2018-06-05T12:50:34.268Z,99004.75
2018-06-05T12:53:03.332Z,99002.93
2018-06-05T12:55:32.287Z,99002.92
2018-06-05T12:58:01.310Z,99001.23
2018-06-05T13:00:30.331Z,99001.49
2018-06-05T13:02:59.388Z,99003.64
2018-06-05T13:05:28.581Z,98997.06
2018-06-05T13:07:57.556Z,98994.11
2018-06-05T13:10:26.584Z,98997.63
2018-06-05T13:12:55.595Z,98990.05
2018-06-05T13:15:24.603Z,98990.14
2018-06-05T13:17:53.617Z,98988.78
2018-06-05T13:20:22.578Z,98994.63
2018-06-05T13:22:51.654Z,98989.91
2018-06-05T13:25:20.685Z,98989.88
2018-06-05T13:27:49.736Z,99002.08
2018-06-05T13:30:18.856Z,98998.47
2018-06-05T13:32:47.865Z,99004.68
2018-06-05T13:35:16.848Z,98999.29
2018-06-05T13:37:45.792Z,98998.81
2018-06-05T13:40:14.728Z,98993.63
2018-06-05T13:42:43.677Z,98990.26
2018-06-05T13:45:12.672Z,98991.92
2018-06-05T13:47:41.721Z,98994.44
2018-06-05T13:50:10.770Z,98992.09
2018-06-05T13:52:39.886Z,98987.78
2018-06-05T13:55:08.836Z,98988.11
2018-06-05T13:57:37.795Z,98988.56
2018-06-05T14:00:07.110Z,98994.00
2018-06-05T14:02:36.089Z,98993.27
2018-06-05T14:05:05.147Z,98987.58
2018-06-05T14:07:34.155Z,98981.21
2018-06-05T14:10:03.100Z,98983.86
2018-06-05T14:12:32.064Z,98983.69
2018-06-05T14:15:01.068Z,98983.28
2018-06-05T14:17:30.078Z,98990.41
2018-06-05T14:19:59.117Z,98990.11
2018-06-05T14:22:28.082Z,99018.95
2018-06-05T14:24:57.035Z,99030.34
2018-06-05T14:27:26.005Z,99032.20
2018-06-05T14:29:55.046Z,99031.72
2018-06-05T14:32:24.112Z,99030.48
2018-06-05T14:34:53.071Z,99037.21
2018-06-05T14:37:22.110Z,99029.05
2018-06-05T14:39:51.067Z,99024.36
2018-06-05T14:42:20.076Z,99022.27
2018-06-05T14:44:49.080Z,99031.70
2018-06-05T14:47:18.031Z,99019.20
2018-06-05T14:49:47.059Z,99025.95
2018-06-05T14:52:16.007Z,99028.58
2018-06-05T14:54:44.980Z,99036.32
2018-06-05T14:57:13.989Z,99035.66
2018-06-05T14:59:43.000Z,99038.84
2018-06-05T15:02:11.952Z,99039.03
2018-06-05T15:04:40.928Z,99042.64
2018-06-05T15:07:10.038Z,99034.58
2018-06-05T15:09:38.985Z,99027.72
2018-06-05T15:12:07.941Z,99015.45
2018-06-05T15:14:36.896Z,99004.92
2018-06-05T15:17:06.054Z,98995.00
2018-06-05T15:19:35.072Z,98997.42
2018-06-05T15:22:04.049Z,98996.64
2018-06-05T15:24:33.068Z,98994.66
2018-06-05T15:27:02.141Z,98998.89
2018-06-05T15:29:31.156Z,99001.56
2018-06-05T15:32:00.172Z,99013.20
2018-06-05T15:34:29.131Z,99012.39
2018-06-05T15:36:58.129Z,99014.33
2018-06-05T15:39:27.212Z,99015.05
2018-06-05T15:41:56.208Z,99027.47
2018-06-05T15:44:25.208Z,99027.61
2018-06-05T15:46:54.218Z,99033.39
2018-06-05T15:49:23.219Z,99037.48
2018-06-05T15:51:52.176Z,99048.48
2018-06-05T15:54:21.152Z,99052.02
2018-06-05T15:56:50.165Z,99043.63
2018-06-05T15:59:19.209Z,99054.06
2018-06-05T16:01:48.184Z,99060.02
2018-06-05T16:04:17.205Z,99062.22
2018-06-05T16:06:46.277Z,99059.72
2018-06-05T16:09:15.310Z,99060.20
2018-06-05T16:11:44.328Z,99060.24
2018-06-05T16:14:13.349Z,99064.73
2018-06-05T16:16:42.333Z,99065.66
2018-06-05T16:19:11.414Z,99067.43
2018-06-05T16:21:40.357Z,99067.80
2018-06-05T16:24:09.408Z,99073.14
2018-06-05T16:26:38.357Z,99077.13
2018-06-05T16:29:07.304Z,99076.43
2018-06-05T16:31:36.353Z,99072.14
2018-06-05T16:34:05.310Z,99065.23
2018-06-05T16:36:34.304Z,99068.17
2018-06-05T16:39:03.396Z,99067.16
2018-06-05T16:41:32.397Z,99073.41
2018-06-05T16:44:01.404Z,99070.81
2018-06-05T16:46:30.409Z,99072.70
2018-06-05T16:48:59.390Z,99074.53
2018-06-05T16:51:28.441Z,99084.44
2018-06-05T16:53:57.411Z,99085.87
2018-06-05T16:56:26.417Z,99086.80
2018-06-05T16:58:55.444Z,99092.97
2018-06-05T17:01:24.454Z,99093.47
2018-06-05T17:03:53.464Z,99099.70
2018-06-05T17:06:22.425Z,99100.08
2018-06-05T17:08:51.544Z,99109.75
2018-06-05T17:11:20.508Z,99105.09
2018-06-05T17:13:49.589Z,99105.91
2018-06-05T17:16:18.586Z,99104.31
2018-06-05T17:18:47.535Z,99110.75
2018-06-05T17:21:16.554Z,99111.57
2018-06-05T17:23:45.596Z,99116.84
2018-06-05T17:26:14.549Z,99113.02
2018-06-05T17:28:43.562Z,99113.59
2018-06-05T17:31:12.600Z,99112.01
2018-06-05T17:33:41.737Z,99113.14
2018-06-05T17:36:10.746Z,99115.63
2018-06-05T17:38:39.784Z,99121.75
2018-06-05T17:41:08.840Z,99131.16
2018-06-05T17:43:37.832Z,99121.89
2018-06-05T17:46:06.856Z,99131.81
2018-06-05T17:48:35.835Z,99128.58
2018-06-05T17:51:04.931Z,99131.39
2018-06-05T17:53:33.945Z,99129.26
2018-06-05T17:56:02.950Z,99129.52
2018-06-05T17:58:31.985Z,99136.70
2018-06-05T18:01:01.004Z,99142.20
2018-06-05T18:03:30.045Z,99135.94
2018-06-05T18:05:58.992Z,99137.64
2018-06-05T18:08:28.008Z,99141.26
2018-06-05T18:10:57.048Z,99141.54
2018-06-05T18:13:26.063Z,99145.39
2018-06-05T18:15:55.216Z,99141.27
2018-06-05T18:18:24.357Z,99145.98
2018-06-05T18:20:53.390Z,99145.44
2018-06-05T18:23:22.388Z,99156.17
2018-06-05T18:25:51.409Z,99159.47
2018-06-05T18:28:20.439Z,99162.22
2018-06-05T18:30:49.661Z,99169.09
2018-06-05T18:33:18.640Z,99174.88
2018-06-05T18:35:47.675Z,99185.59
2018-06-05T18:38:16.758Z,99192.72
2018-06-05T18:40:45.781Z,99196.03
2018-06-05T18:43:14.804Z,99207.59
2018-06-05T18:45:43.801Z,99202.66
2018-06-05T18:48:12.824Z,99206.22
2018-06-05T18:50:41.832Z,99206.78
2018-06-05T18:53:10.815Z,99214.73
2018-06-05T18:55:39.808Z,99217.47
2018-06-05T18:58:08.826Z,99220.78
2018-06-05T19:00:37.857Z,99221.59
2018-06-05T19:03:06.818Z,99227.36
2018-06-05T19:06:06.645Z,99239.16
2018-06-05T19:08:35.619Z,99238.56
2018-06-05T19:11:04.705Z,99233.91
2018-06-05T19:13:33.698Z,99239.09
2018-06-05T19:16:02.652Z,99242.11
2018-06-05T19:18:31.669Z,99243.75
2018-06-05T19:21:00.646Z,99247.31
2018-06-05T19:23:29.705Z,99251.70
2018-06-05T19:25:58.732Z,99245.65
2018-06-05T19:28:27.744Z,99244.00
2018-06-05T19:30:56.751Z,99254.94
2018-06-05T19:33:25.826Z,99245.59
2018-06-05T19:35:54.877Z,99250.78
2018-06-05T19:38:23.872Z,99263.63
2018-06-05T19:40:52.920Z,99267.16
2018-06-05T19:43:21.925Z,99259.75
2018-06-05T19:45:50.876Z,99262.80
2018-06-05T19:48:19.841Z,99267.16
2018-06-05T19:50:48.792Z,99262.22
2018-06-05T19:53:17.813Z,99260.56
2018-06-05T19:55:46.872Z,99256.73
2018-06-05T19:58:15.894Z,99260.28
2018-06-05T20:00:44.973Z,99261.12
2018-06-05T20:03:14.096Z,99259.20
2018-06-05T20:05:43.048Z,99260.00
2018-06-05T20:08:12.000Z,99262.20
2018-06-05T20:10:41.017Z,99259.44
2018-06-05T20:13:09.953Z,99253.96
2018-06-05T20:15:38.965Z,99257.48
2018-06-05T20:18:07.964Z,99258.05
2018-06-05T20:20:37.004Z,99253.92
2018-06-05T20:23:05.979Z,99258.88
2018-06-05T20:25:35.028Z,99262.13
2018-06-05T20:28:03.987Z,99269.00
2018-06-05T20:30:32.929Z,99256.68
2018-06-05T20:33:01.937Z,99257.55
2018-06-05T20:35:30.879Z,99258.59
2018-06-05T20:37:59.924Z,99261.05
2018-06-05T20:40:28.969Z,99264.88
2018-06-05T20:42:57.961Z,99264.06
2018-06-05T20:45:26.884Z,99269.33
2018-06-05T20:47:55.816Z,99263.27
2018-06-05T20:50:24.813Z,99256.66
2018-06-05T20:52:53.809Z,99262.17
2018-06-05T20:55:22.796Z,99260.30
2018-06-05T20:57:51.788Z,99267.97
2018-06-05T21:00:20.728Z,99263.78
2018-06-05T21:02:49.749Z,99273.65
2018-06-05T21:05:18.780Z,99274.73
2018-06-05T21:07:47.804Z,99271.48
2018-06-05T21:10:16.788Z,99276.11
2018-06-05T21:12:45.824Z,99283.20
2018-06-05T21:15:14.824Z,99283.42
2018-06-05T21:17:43.760Z,99288.81
2018-06-05T21:20:12.764Z,99289.58
2018-06-05T21:22:41.780Z,99288.16
2018-06-05T21:25:10.724Z,99287.05
2018-06-05T21:27:39.660Z,99295.23
2018-06-05T21:30:08.781Z,99292.99
2018-06-05T21:32:37.749Z,99300.60
2018-06-05T21:35:06.692Z,99298.38
2018-06-05T21:37:35.645Z,99298.92
2018-06-05T21:40:04.628Z,99293.91
2018-06-05T21:42:33.563Z,99299.34
2018-06-05T21:45:02.512Z,99294.99
2018-06-05T21:47:31.501Z,99292.80
2018-06-05T21:50:00.541Z,99287.81
2018-06-05T21:52:29.506Z,99285.94
2018-06-05T21:54:58.538Z,99289.23
2018-06-05T21:57:27.533Z,99284.87
2018-06-05T21:59:56.481Z,99290.06
2018-06-05T22:02:25.444Z,99294.45
2018-06-05T22:04:54.420Z,99300.52
2018-06-05T22:07:23.365Z,99297.98
2018-06-05T22:09:52.296Z,99299.92
2018-06-05T22:12:21.235Z,99298.36
2018-06-05T22:14:50.172Z,99294.25
2018-06-05T22:17:19.115Z,99303.66
2018-06-05T22:19:48.047Z,99303.66
2018-06-05T22:22:17.015Z,99305.58
2018-06-05T22:24:46.020Z,99304.27
2018-06-05T22:27:14.981Z,99311.70
2018-06-05T22:29:43.924Z,99308.14
2018-06-05T22:32:12.852Z,99306.23
2018-06-05T22:34:41.804Z,99309.77
2018-06-05T22:37:10.749Z,99301.81
2018-06-05T22:39:39.728Z,99301.53
2018-06-05T22:42:08.660Z,99309.77
2018-06-05T22:44:37.592Z,99309.48
2018-06-05T22:47:06.545Z,99312.22
2018-06-05T22:49:35.485Z,99320.94
2018-06-05T22:52:04.451Z,99323.05
2018-06-05T22:54:33.389Z,99322.97
2018-06-05T22:57:02.352Z,99323.64
2018-06-05T22:59:31.280Z,99320.27
2018-06-05T23:02:00.219Z,99328.63
2018-06-05T23:04:29.172Z,99332.08
2018-06-05T23:06:58.109Z,99334.52
2018-06-05T23:09:27.077Z,99338.80
2018-06-05T23:11:56.011Z,99337.02
2018-06-05T23:14:24.944Z,99341.29
2018-06-05T23:16:53.994Z,99341.50
2018-06-05T23:19:22.943Z,99338.36
2018-06-05T23:21:51.875Z,99343.78
2018-06-05T23:24:20.805Z,99338.86
2018-06-05T23:26:49.770Z,99333.02
2018-06-05T23:29:18.709Z,99329.08
2018-06-05T23:31:47.636Z,99331.42
2018-06-05T23:34:16.584Z,99332.70
2018-06-05T23:36:45.545Z,99331.28
2018-06-05T23:39:14.492Z,99333.38
2018-06-05T23:41:43.484Z,99335.58
2018-06-05T23:44:12.526Z,99327.83
2018-06-05T23:46:41.581Z,99324.60
2018-06-05T23:49:10.545Z,99322.95
2018-06-05T23:51:39.540Z,99320.22
2018-06-05T23:54:08.681Z,99319.58
2018-06-05T23:56:37.628Z,99322.51
2018-06-05T23:59:06.642Z,99318.33
